createdAt,value
2023-07-08T18:15:36.046Z,101116.03
2023-07-08T18:18:05.117Z,101108.53
2023-07-08T18:20:38.334Z,101114.78
2023-07-08T18:23:17.094Z,101111.59
2023-07-08T18:25:45.378Z,101112.34
2023-07-08T18:28:17.022Z,101115.31
2023-07-08T18:30:45.517Z,101113.44
2023-07-08T18:33:16.375Z,101114.44
2023-07-08T18:35:46.969Z,101125.16
2023-07-08T18:38:15.828Z,101122.66
2023-07-08T18:40:45.317Z,101117.38
2023-07-08T18:43:18.728Z,101120.72
2023-07-08T18:45:48.625Z,101120.72
2023-07-08T18:48:18.867Z,101122.44
2023-07-08T18:50:52.370Z,101124.41
2023-07-08T18:53:21.811Z,101134.34
2023-07-08T18:55:50.597Z,101127.47
2023-07-08T18:58:22.567Z,101133.63
2023-07-08T19:00:53.472Z,101137.72
2023-07-08T19:03:26.012Z,101138.25
2023-07-08T19:05:55.076Z,101136.66
2023-07-08T19:08:23.902Z,101139.97
2023-07-08T19:10:56.622Z,101145.38
2023-07-08T19:13:25.681Z,101145.38
2023-07-08T19:15:55.881Z,101149.09
2023-07-08T19:18:25.492Z,101150.94
2023-07-08T19:20:53.986Z,101161.16
2023-07-08T19:23:25.249Z,101161.88
2023-07-08T19:25:54.009Z,101162.88
2023-07-08T19:28:22.847Z,101163.88
2023-07-08T19:30:56.426Z,101167.56
2023-07-08T19:33:26.000Z,101168.66
2023-07-08T19:35:57.346Z,101171.25
2023-07-08T19:38:25.789Z,101178.38
2023-07-08T19:40:54.758Z,101182.59
2023-07-08T19:43:23.750Z,101182.34
2023-07-08T19:45:51.933Z,101184.56
2023-07-08T19:48:20.643Z,101182.84
2023-07-08T19:50:50.793Z,101184.72
2023-07-08T19:53:19.312Z,101181.00
2023-07-08T19:55:47.608Z,101191.97
2023-07-08T19:58:16.205Z,101197.66
2023-07-08T20:00:47.730Z,101197.66
2023-07-08T20:03:17.374Z,101205.03
2023-07-08T20:05:45.801Z,101205.88
2023-07-08T20:08:22.869Z,101208.72
2023-07-08T20:10:55.214Z,101218.81
2023-07-08T20:13:25.306Z,101214.63
2023-07-08T20:15:54.495Z,101223.75
2023-07-08T20:18:31.540Z,101224.72
2023-07-08T20:21:00.755Z,101234.56
2023-07-08T20:23:29.582Z,101228.69
2023-07-08T20:25:57.916Z,101226.69
2023-07-08T20:28:44.880Z,101242.09
2023-07-08T20:31:14.998Z,101241.38
2023-07-08T20:33:43.864Z,101235.34
2023-07-08T20:36:17.594Z,101246.16
2023-07-08T20:38:52.077Z,101242.72
2023-07-08T20:41:22.040Z,101244.91
2023-07-08T20:43:50.948Z,101244.03
2023-07-08T20:46:24.116Z,101244.16
2023-07-08T20:49:00.103Z,101241.47
2023-07-08T20:51:28.442Z,101240.00
2023-07-08T20:53:57.398Z,101236.19
2023-07-08T20:56:32.237Z,101242.09
2023-07-08T20:59:01.525Z,101246.91
2023-07-08T21:01:33.688Z,101255.16
2023-07-08T21:04:02.593Z,101251.09
2023-07-08T21:06:33.402Z,101264.84
2023-07-08T21:09:02.340Z,101268.34
2023-07-08T21:11:30.713Z,101261.44
2023-07-08T21:14:01.136Z,101265.97
2023-07-08T21:16:30.054Z,101269.00
2023-07-08T21:18:59.344Z,101260.56
2023-07-08T21:21:27.885Z,101263.69
2023-07-08T21:23:56.645Z,101265.03
2023-07-08T21:26:29.779Z,101265.16
2023-07-08T21:29:01.293Z,101266.28
2023-07-08T21:31:31.025Z,101278.63
2023-07-08T21:33:59.723Z,101281.09
2023-07-08T21:36:31.087Z,101274.53
2023-07-08T21:39:04.750Z,101283.13
2023-07-08T21:41:33.081Z,101289.78
2023-07-08T21:44:01.611Z,101291.63
2023-07-08T21:46:29.930Z,101283.63
2023-07-08T21:48:58.687Z,101291.38
2023-07-08T21:51:31.268Z,101289.91
2023-07-08T21:54:02.873Z,101284.63
2023-07-08T21:56:31.521Z,101288.69
2023-07-08T21:59:00.258Z,101296.06
2023-07-08T22:01:33.140Z,101290.41
2023-07-08T22:04:02.554Z,101296.56
2023-07-08T22:06:31.348Z,101286.72
2023-07-08T22:08:59.849Z,101288.69
2023-07-08T22:11:36.395Z,101285.25
2023-07-08T22:14:06.415Z,101283.78
2023-07-08T22:16:38.140Z,101282.06
2023-07-08T22:19:07.065Z,101276.34
2023-07-08T22:21:37.341Z,101284.50
2023-07-08T22:24:10.727Z,101275.78
2023-07-08T22:26:46.219Z,101280.53
2023-07-08T22:29:15.002Z,101275.13
2023-07-08T22:31:44.342Z,101283.13
2023-07-08T22:34:15.740Z,101284.03
2023-07-08T22:36:44.065Z,101281.53
2023-07-08T22:39:13.500Z,101289.75
2023-07-08T22:41:45.821Z,101287.59
2023-07-08T22:44:15.330Z,101288.31
2023-07-08T22:46:44.276Z,101293.94
2023-07-08T22:49:16.029Z,101281.63
2023-07-08T22:51:45.854Z,101288.66
2023-07-08T22:54:16.058Z,101288.38
2023-07-08T22:56:44.343Z,101289.00
2023-07-08T22:59:13.279Z,101300.69
2023-07-08T23:01:42.269Z,101297.22
2023-07-08T23:04:11.112Z,101297.22
2023-07-08T23:06:39.633Z,101293.78
2023-07-08T23:09:12.705Z,101289.97
2023-07-08T23:11:43.449Z,101296.72
2023-07-08T23:14:13.022Z,101294.16
2023-07-08T23:16:41.554Z,101289.09
2023-07-08T23:19:13.072Z,101297.69
2023-07-08T23:21:42.493Z,101297.16
2023-07-08T23:24:11.603Z,101303.44
2023-07-08T23:26:41.803Z,101302.56
2023-07-08T23:29:21.122Z,101308.84
2023-07-08T23:31:51.260Z,101306.00
2023-07-08T23:34:20.201Z,101314.44
2023-07-08T23:36:51.977Z,101307.31
2023-07-08T23:39:26.242Z,101309.16
2023-07-08T23:41:54.473Z,101310.50
2023-07-08T23:44:25.219Z,101312.13
2023-07-08T23:46:56.545Z,101306.56
2023-07-08T23:49:34.918Z,101311.47
2023-07-08T23:52:03.706Z,101309.63
2023-07-08T23:54:36.924Z,101312.78
2023-07-08T23:57:07.564Z,101307.91
2023-07-08T23:59:39.839Z,101303.50
